sensor_id;sensor_type;location;lat;lon;timestamp;P1;durP1;ratioP1;P2;durP2;ratioP2
37805;SDS011;25082;50.870;0.022;2023-01-28T00:00:03;5.85;;;2.83;;
37805;SDS011;25082;50.870;0.022;2023-01-28T00:02:31;5.13;;;2.92;;
37805;SDS011;25082;50.870;0.022;2023-01-28T00:04:57;5.57;;;3.22;;
37805;SDS011;25082;50.870;0.022;2023-01-28T00:07:23;4.28;;;2.30;;
37805;SDS011;25082;50.870;0.022;2023-01-28T00:09:49;6.63;;;2.72;;
37805;SDS011;25082;50.870;0.022;2023-01-28T00:12:14;3.65;;;2.50;;
37805;SDS011;25082;50.870;0.022;2023-01-28T00:14:40;6.25;;;2.58;;
37805;SDS011;25082;50.870;0.022;2023-01-28T00:17:06;7.28;;;2.88;;
37805;SDS011;25082;50.870;0.022;2023-01-28T00:19:32;6.50;;;3.00;;
37805;SDS011;25082;50.870;0.022;2023-01-28T00:21:58;5.05;;;2.45;;
37805;SDS011;25082;50.870;0.022;2023-01-28T00:24:23;4.85;;;2.65;;
37805;SDS011;25082;50.870;0.022;2023-01-28T00:26:49;4.90;;;2.63;;
37805;SDS011;25082;50.870;0.022;2023-01-28T00:29:15;5.68;;;2.80;;
37805;SDS011;25082;50.870;0.022;2023-01-28T00:31:41;3.78;;;2.67;;
37805;SDS011;25082;50.870;0.022;2023-01-28T00:34:07;5.60;;;3.10;;
37805;SDS011;25082;50.870;0.022;2023-01-28T00:36:33;5.93;;;3.20;;
37805;SDS011;25082;50.870;0.022;2023-01-28T00:39:03;7.63;;;2.72;;
37805;SDS011;25082;50.870;0.022;2023-01-28T00:41:30;6.35;;;3.05;;
37805;SDS011;25082;50.870;0.022;2023-01-28T00:43:56;7.97;;;3.28;;
37805;SDS011;25082;50.870;0.022;2023-01-28T00:46:22;5.97;;;2.65;;
37805;SDS011;25082;50.870;0.022;2023-01-28T00:48:51;5.22;;;2.88;;
37805;SDS011;25082;50.870;0.022;2023-01-28T00:51:18;5.30;;;3.10;;
37805;SDS011;25082;50.870;0.022;2023-01-28T00:53:45;5.78;;;3.20;;
37805;SDS011;25082;50.870;0.022;2023-01-28T00:56:12;8.25;;;3.78;;
37805;SDS011;25082;50.870;0.022;2023-01-28T00:58:40;6.93;;;3.85;;
37805;SDS011;25082;50.870;0.022;2023-01-28T01:01:07;9.25;;;3.78;;
37805;SDS011;25082;50.870;0.022;2023-01-28T01:03:34;6.85;;;4.25;;
37805;SDS011;25082;50.870;0.022;2023-01-28T01:06:00;5.82;;;3.60;;
37805;SDS011;25082;50.870;0.022;2023-01-28T01:08:26;5.35;;;3.35;;
37805;SDS011;25082;50.870;0.022;2023-01-28T01:11:02;6.50;;;3.92;;
37805;SDS011;25082;50.870;0.022;2023-01-28T01:13:29;6.93;;;3.63;;
37805;SDS011;25082;50.870;0.022;2023-01-28T01:16:02;5.72;;;3.90;;
37805;SDS011;25082;50.870;0.022;2023-01-28T01:18:32;9.07;;;4.70;;
37805;SDS011;25082;50.870;0.022;2023-01-28T01:20:59;6.57;;;3.55;;
37805;SDS011;25082;50.870;0.022;2023-01-28T01:23:26;8.88;;;3.63;;
37805;SDS011;25082;50.870;0.022;2023-01-28T01:25:53;5.55;;;3.55;;
37805;SDS011;25082;50.870;0.022;2023-01-28T01:28:19;7.93;;;4.55;;
37805;SDS011;25082;50.870;0.022;2023-01-28T01:30:46;6.55;;;3.72;;
37805;SDS011;25082;50.870;0.022;2023-01-28T01:33:12;6.57;;;3.85;;
37805;SDS011;25082;50.870;0.022;2023-01-28T01:35:38;6.43;;;3.80;;
37805;SDS011;25082;50.870;0.022;2023-01-28T01:38:04;8.60;;;4.07;;
37805;SDS011;25082;50.870;0.022;2023-01-28T01:40:30;6.15;;;3.92;;
37805;SDS011;25082;50.870;0.022;2023-01-28T01:42:56;7.57;;;3.42;;
37805;SDS011;25082;50.870;0.022;2023-01-28T01:45:21;5.15;;;3.63;;
37805;SDS011;25082;50.870;0.022;2023-01-28T01:50:24;7.47;;;4.05;;
37805;SDS011;25082;50.870;0.022;2023-01-28T01:53:05;6.63;;;4.00;;
37805;SDS011;25082;50.870;0.022;2023-01-28T01:55:34;8.43;;;3.75;;
37805;SDS011;25082;50.870;0.022;2023-01-28T01:58:06;7.00;;;3.67;;
37805;SDS011;25082;50.870;0.022;2023-01-28T02:00:35;7.15;;;4.07;;
37805;SDS011;25082;50.870;0.022;2023-01-28T02:03:02;5.45;;;3.35;;
37805;SDS011;25082;50.870;0.022;2023-01-28T02:05:28;6.32;;;3.75;;
37805;SDS011;25082;50.870;0.022;2023-01-28T02:07:55;5.57;;;3.83;;
37805;SDS011;25082;50.870;0.022;2023-01-28T02:10:41;7.40;;;3.83;;
37805;SDS011;25082;50.870;0.022;2023-01-28T02:13:08;6.20;;;3.67;;
37805;SDS011;25082;50.870;0.022;2023-01-28T02:15:34;6.50;;;4.10;;
37805;SDS011;25082;50.870;0.022;2023-01-28T02:18:00;6.97;;;3.95;;
37805;SDS011;25082;50.870;0.022;2023-01-28T02:23:20;6.68;;;3.65;;
37805;SDS011;25082;50.870;0.022;2023-01-28T02:26:15;4.97;;;3.30;;
37805;SDS011;25082;50.870;0.022;2023-01-28T02:28:51;7.50;;;3.63;;
37805;SDS011;25082;50.870;0.022;2023-01-28T02:31:32;8.20;;;3.70;;
37805;SDS011;25082;50.870;0.022;2023-01-28T02:34:12;6.88;;;3.08;;
37805;SDS011;25082;50.870;0.022;2023-01-28T02:36:45;5.07;;;3.35;;
37805;SDS011;25082;50.870;0.022;2023-01-28T02:39:17;6.78;;;3.67;;
37805;SDS011;25082;50.870;0.022;2023-01-28T02:41:49;6.45;;;3.80;;
37805;SDS011;25082;50.870;0.022;2023-01-28T02:44:22;7.75;;;3.80;;
37805;SDS011;25082;50.870;0.022;2023-01-28T02:46:50;6.97;;;4.20;;
37805;SDS011;25082;50.870;0.022;2023-01-28T02:49:57;7.50;;;4.07;;
37805;SDS011;25082;50.870;0.022;2023-01-28T02:55:19;4.82;;;3.15;;
37805;SDS011;25082;50.870;0.022;2023-01-28T02:58:04;7.13;;;3.95;;
37805;SDS011;25082;50.870;0.022;2023-01-28T03:01:05;6.15;;;3.67;;
37805;SDS011;25082;50.870;0.022;2023-01-28T03:06:39;6.22;;;3.50;;
37805;SDS011;25082;50.870;0.022;2023-01-28T03:09:12;5.82;;;3.38;;
37805;SDS011;25082;50.870;0.022;2023-01-28T03:11:54;6.32;;;3.42;;
37805;SDS011;25082;50.870;0.022;2023-01-28T03:17:59;7.53;;;3.45;;
37805;SDS011;25082;50.870;0.022;2023-01-28T03:23:55;6.07;;;3.85;;
37805;SDS011;25082;50.870;0.022;2023-01-28T03:29:36;5.15;;;3.50;;
37805;SDS011;25082;50.870;0.022;2023-01-28T03:32:23;6.40;;;3.67;;
37805;SDS011;25082;50.870;0.022;2023-01-28T03:35:08;7.15;;;4.60;;
37805;SDS011;25082;50.870;0.022;2023-01-28T03:37:56;6.30;;;3.90;;
37805;SDS011;25082;50.870;0.022;2023-01-28T03:40:24;6.32;;;4.00;;
37805;SDS011;25082;50.870;0.022;2023-01-28T03:42:51;6.35;;;4.03;;
37805;SDS011;25082;50.870;0.022;2023-01-28T03:45:18;7.10;;;4.18;;
37805;SDS011;25082;50.870;0.022;2023-01-28T03:47:45;5.85;;;3.80;;
37805;SDS011;25082;50.870;0.022;2023-01-28T03:50:11;7.25;;;3.83;;
37805;SDS011;25082;50.870;0.022;2023-01-28T03:52:37;7.75;;;4.13;;
37805;SDS011;25082;50.870;0.022;2023-01-28T03:55:03;6.63;;;3.83;;
37805;SDS011;25082;50.870;0.022;2023-01-28T03:57:37;6.13;;;3.80;;
37805;SDS011;25082;50.870;0.022;2023-01-28T04:00:03;7.57;;;3.97;;
37805;SDS011;25082;50.870;0.022;2023-01-28T04:02:31;8.07;;;3.72;;
37805;SDS011;25082;50.870;0.022;2023-01-28T04:04:58;5.57;;;4.07;;
37805;SDS011;25082;50.870;0.022;2023-01-28T04:07:24;7.85;;;4.35;;
37805;SDS011;25082;50.870;0.022;2023-01-28T04:09:50;6.53;;;4.18;;
37805;SDS011;25082;50.870;0.022;2023-01-28T04:12:16;7.18;;;4.05;;
37805;SDS011;25082;50.870;0.022;2023-01-28T04:14:42;7.03;;;4.10;;
37805;SDS011;25082;50.870;0.022;2023-01-28T04:17:08;7.18;;;4.07;;
37805;SDS011;25082;50.870;0.022;2023-01-28T04:19:35;6.45;;;3.92;;
37805;SDS011;25082;50.870;0.022;2023-01-28T04:22:05;8.18;;;4.57;;
37805;SDS011;25082;50.870;0.022;2023-01-28T04:24:34;7.90;;;4.50;;
37805;SDS011;25082;50.870;0.022;2023-01-28T04:27:00;7.03;;;4.43;;
37805;SDS011;25082;50.870;0.022;2023-01-28T04:29:26;9.20;;;4.10;;
37805;SDS011;25082;50.870;0.022;2023-01-28T04:31:51;8.25;;;3.78;;
37805;SDS011;25082;50.870;0.022;2023-01-28T04:34:17;6.95;;;4.38;;
37805;SDS011;25082;50.870;0.022;2023-01-28T04:36:44;8.27;;;4.28;;
37805;SDS011;25082;50.870;0.022;2023-01-28T04:39:10;6.60;;;4.18;;
37805;SDS011;25082;50.870;0.022;2023-01-28T04:41:35;8.45;;;4.18;;
37805;SDS011;25082;50.870;0.022;2023-01-28T04:44:01;8.77;;;3.80;;
37805;SDS011;25082;50.870;0.022;2023-01-28T04:46:27;8.70;;;3.97;;
37805;SDS011;25082;50.870;0.022;2023-01-28T04:48:53;6.80;;;4.57;;
37805;SDS011;25082;50.870;0.022;2023-01-28T04:51:18;7.47;;;4.00;;
37805;SDS011;25082;50.870;0.022;2023-01-28T04:53:44;8.45;;;4.63;;
37805;SDS011;25082;50.870;0.022;2023-01-28T04:56:10;7.20;;;4.43;;
37805;SDS011;25082;50.870;0.022;2023-01-28T04:58:36;6.80;;;4.43;;
37805;SDS011;25082;50.870;0.022;2023-01-28T05:01:01;5.28;;;3.47;;
37805;SDS011;25082;50.870;0.022;2023-01-28T05:03:27;7.70;;;4.57;;
37805;SDS011;25082;50.870;0.022;2023-01-28T05:05:53;7.32;;;4.32;;
37805;SDS011;25082;50.870;0.022;2023-01-28T05:08:19;6.47;;;4.10;;
37805;SDS011;25082;50.870;0.022;2023-01-28T05:10:44;8.00;;;4.18;;
37805;SDS011;25082;50.870;0.022;2023-01-28T05:13:10;9.20;;;4.30;;
37805;SDS011;25082;50.870;0.022;2023-01-28T05:15:36;8.90;;;5.13;;
37805;SDS011;25082;50.870;0.022;2023-01-28T05:18:01;7.80;;;4.07;;
37805;SDS011;25082;50.870;0.022;2023-01-28T05:20:27;6.75;;;3.97;;
37805;SDS011;25082;50.870;0.022;2023-01-28T05:22:53;6.70;;;3.92;;
37805;SDS011;25082;50.870;0.022;2023-01-28T05:25:19;8.02;;;3.70;;
37805;SDS011;25082;50.870;0.022;2023-01-28T05:27:51;7.28;;;3.88;;
37805;SDS011;25082;50.870;0.022;2023-01-28T05:30:18;5.28;;;3.78;;
37805;SDS011;25082;50.870;0.022;2023-01-28T05:32:44;5.22;;;3.58;;
37805;SDS011;25082;50.870;0.022;2023-01-28T05:35:10;6.57;;;4.13;;
37805;SDS011;25082;50.870;0.022;2023-01-28T05:37:36;6.60;;;3.60;;
37805;SDS011;25082;50.870;0.022;2023-01-28T05:40:02;7.70;;;4.00;;
37805;SDS011;25082;50.870;0.022;2023-01-28T05:42:28;5.95;;;3.47;;
37805;SDS011;25082;50.870;0.022;2023-01-28T05:44:54;5.97;;;3.53;;
37805;SDS011;25082;50.870;0.022;2023-01-28T05:47:19;5.85;;;3.75;;
37805;SDS011;25082;50.870;0.022;2023-01-28T05:49:45;7.00;;;3.97;;
37805;SDS011;25082;50.870;0.022;2023-01-28T05:52:11;6.65;;;4.25;;
37805;SDS011;25082;50.870;0.022;2023-01-28T05:54:37;6.57;;;3.97;;
37805;SDS011;25082;50.870;0.022;2023-01-28T05:57:03;6.75;;;3.85;;
37805;SDS011;25082;50.870;0.022;2023-01-28T05:59:28;6.75;;;3.60;;
37805;SDS011;25082;50.870;0.022;2023-01-28T06:01:54;6.60;;;3.70;;
37805;SDS011;25082;50.870;0.022;2023-01-28T06:04:20;7.65;;;3.28;;
37805;SDS011;25082;50.870;0.022;2023-01-28T06:06:46;7.30;;;3.70;;
37805;SDS011;25082;50.870;0.022;2023-01-28T06:09:11;6.43;;;3.72;;
37805;SDS011;25082;50.870;0.022;2023-01-28T06:11:37;5.78;;;3.47;;
37805;SDS011;25082;50.870;0.022;2023-01-28T06:14:03;4.30;;;3.17;;
37805;SDS011;25082;50.870;0.022;2023-01-28T06:16:28;6.28;;;3.55;;
37805;SDS011;25082;50.870;0.022;2023-01-28T06:18:54;7.60;;;4.40;;
37805;SDS011;25082;50.870;0.022;2023-01-28T06:21:20;7.03;;;3.38;;
37805;SDS011;25082;50.870;0.022;2023-01-28T06:23:45;7.25;;;3.65;;
37805;SDS011;25082;50.870;0.022;2023-01-28T06:26:11;7.43;;;3.83;;
37805;SDS011;25082;50.870;0.022;2023-01-28T06:28:37;6.22;;;3.60;;
37805;SDS011;25082;50.870;0.022;2023-01-28T06:31:03;7.45;;;3.90;;
37805;SDS011;25082;50.870;0.022;2023-01-28T06:33:29;7.30;;;3.58;;
37805;SDS011;25082;50.870;0.022;2023-01-28T06:35:55;6.50;;;3.47;;
37805;SDS011;25082;50.870;0.022;2023-01-28T06:38:21;5.63;;;3.65;;
37805;SDS011;25082;50.870;0.022;2023-01-28T06:40:50;6.50;;;3.30;;
37805;SDS011;25082;50.870;0.022;2023-01-28T06:43:17;6.95;;;3.50;;
37805;SDS011;25082;50.870;0.022;2023-01-28T06:45:43;4.63;;;3.17;;
37805;SDS011;25082;50.870;0.022;2023-01-28T06:48:08;6.90;;;3.30;;
37805;SDS011;25082;50.870;0.022;2023-01-28T06:50:34;6.10;;;3.47;;
37805;SDS011;25082;50.870;0.022;2023-01-28T06:53:00;6.03;;;3.10;;
37805;SDS011;25082;50.870;0.022;2023-01-28T06:55:25;6.60;;;3.30;;
37805;SDS011;25082;50.870;0.022;2023-01-28T06:57:51;6.60;;;3.10;;
37805;SDS011;25082;50.870;0.022;2023-01-28T07:00:17;7.10;;;3.30;;
37805;SDS011;25082;50.870;0.022;2023-01-28T07:02:43;5.03;;;2.72;;
37805;SDS011;25082;50.870;0.022;2023-01-28T07:05:09;5.82;;;3.15;;
37805;SDS011;25082;50.870;0.022;2023-01-28T07:07:35;6.35;;;2.65;;
37805;SDS011;25082;50.870;0.022;2023-01-28T07:10:01;5.15;;;2.67;;
37805;SDS011;25082;50.870;0.022;2023-01-28T07:12:27;6.00;;;3.28;;
37805;SDS011;25082;50.870;0.022;2023-01-28T07:14:53;6.00;;;2.88;;
37805;SDS011;25082;50.870;0.022;2023-01-28T07:17:18;5.93;;;3.10;;
37805;SDS011;25082;50.870;0.022;2023-01-28T07:19:44;4.25;;;2.65;;
37805;SDS011;25082;50.870;0.022;2023-01-28T07:22:10;5.85;;;3.25;;
37805;SDS011;25082;50.870;0.022;2023-01-28T07:24:36;6.20;;;2.75;;
37805;SDS011;25082;50.870;0.022;2023-01-28T07:27:01;5.97;;;3.17;;
37805;SDS011;25082;50.870;0.022;2023-01-28T07:29:28;8.02;;;2.85;;
37805;SDS011;25082;50.870;0.022;2023-01-28T07:31:54;5.25;;;2.58;;
37805;SDS011;25082;50.870;0.022;2023-01-28T07:34:20;5.70;;;2.83;;
37805;SDS011;25082;50.870;0.022;2023-01-28T07:36:45;6.15;;;2.65;;
37805;SDS011;25082;50.870;0.022;2023-01-28T07:39:11;4.72;;;2.83;;
37805;SDS011;25082;50.870;0.022;2023-01-28T07:41:37;4.25;;;2.05;;
37805;SDS011;25082;50.870;0.022;2023-01-28T07:44:03;4.90;;;2.55;;
37805;SDS011;25082;50.870;0.022;2023-01-28T07:46:29;5.53;;;2.55;;
37805;SDS011;25082;50.870;0.022;2023-01-28T07:48:54;6.03;;;2.63;;
37805;SDS011;25082;50.870;0.022;2023-01-28T07:51:20;4.28;;;2.22;;
37805;SDS011;25082;50.870;0.022;2023-01-28T07:53:46;4.60;;;2.15;;
37805;SDS011;25082;50.870;0.022;2023-01-28T07:56:11;5.80;;;2.35;;
37805;SDS011;25082;50.870;0.022;2023-01-28T07:58:37;4.93;;;2.50;;
37805;SDS011;25082;50.870;0.022;2023-01-28T08:01:03;5.45;;;2.78;;
37805;SDS011;25082;50.870;0.022;2023-01-28T08:03:29;5.60;;;2.38;;
37805;SDS011;25082;50.870;0.022;2023-01-28T08:05:55;4.85;;;2.33;;
37805;SDS011;25082;50.870;0.022;2023-01-28T08:08:22;4.68;;;2.30;;
37805;SDS011;25082;50.870;0.022;2023-01-28T08:10:48;7.13;;;2.53;;
37805;SDS011;25082;50.870;0.022;2023-01-28T08:13:15;4.85;;;2.40;;
37805;SDS011;25082;50.870;0.022;2023-01-28T08:15:41;6.15;;;2.75;;
37805;SDS011;25082;50.870;0.022;2023-01-28T08:18:08;4.35;;;2.60;;
37805;SDS011;25082;50.870;0.022;2023-01-28T08:20:37;5.03;;;2.83;;
37805;SDS011;25082;50.870;0.022;2023-01-28T08:23:08;5.20;;;2.55;;
37805;SDS011;25082;50.870;0.022;2023-01-28T08:25:37;4.43;;;2.42;;
37805;SDS011;25082;50.870;0.022;2023-01-28T08:28:03;6.13;;;2.20;;
37805;SDS011;25082;50.870;0.022;2023-01-28T08:30:30;3.83;;;2.20;;
37805;SDS011;25082;50.870;0.022;2023-01-28T08:32:56;4.95;;;2.13;;
37805;SDS011;25082;50.870;0.022;2023-01-28T08:35:24;4.10;;;2.00;;
37805;SDS011;25082;50.870;0.022;2023-01-28T08:37:50;4.20;;;2.38;;
37805;SDS011;25082;50.870;0.022;2023-01-28T08:40:16;5.47;;;2.67;;
37805;SDS011;25082;50.870;0.022;2023-01-28T08:42:45;5.05;;;2.47;;
37805;SDS011;25082;50.870;0.022;2023-01-28T08:45:13;4.13;;;1.90;;
37805;SDS011;25082;50.870;0.022;2023-01-28T08:47:51;4.32;;;2.20;;
37805;SDS011;25082;50.870;0.022;2023-01-28T08:50:22;4.07;;;2.03;;
37805;SDS011;25082;50.870;0.022;2023-01-28T08:52:53;3.92;;;2.03;;
37805;SDS011;25082;50.870;0.022;2023-01-28T08:55:20;4.77;;;2.37;;
37805;SDS011;25082;50.870;0.022;2023-01-28T08:57:46;4.88;;;2.53;;
37805;SDS011;25082;50.870;0.022;2023-01-28T09:00:12;5.53;;;2.30;;
37805;SDS011;25082;50.870;0.022;2023-01-28T09:02:38;3.47;;;1.95;;
37805;SDS011;25082;50.870;0.022;2023-01-28T09:05:04;5.03;;;2.17;;
37805;SDS011;25082;50.870;0.022;2023-01-28T09:07:30;5.47;;;2.22;;
37805;SDS011;25082;50.870;0.022;2023-01-28T09:09:58;4.07;;;1.85;;
37805;SDS011;25082;50.870;0.022;2023-01-28T09:12:24;4.43;;;2.03;;
37805;SDS011;25082;50.870;0.022;2023-01-28T09:14:50;2.67;;;1.77;;
37805;SDS011;25082;50.870;0.022;2023-01-28T09:17:16;4.68;;;2.08;;
37805;SDS011;25082;50.870;0.022;2023-01-28T09:19:42;2.50;;;1.70;;
37805;SDS011;25082;50.870;0.022;2023-01-28T09:22:08;4.53;;;1.70;;
37805;SDS011;25082;50.870;0.022;2023-01-28T09:24:35;5.68;;;1.98;;
37805;SDS011;25082;50.870;0.022;2023-01-28T09:27:00;3.50;;;1.92;;
37805;SDS011;25082;50.870;0.022;2023-01-28T09:29:26;3.45;;;1.88;;
37805;SDS011;25082;50.870;0.022;2023-01-28T09:31:52;3.10;;;2.03;;
37805;SDS011;25082;50.870;0.022;2023-01-28T09:34:18;3.97;;;1.80;;
37805;SDS011;25082;50.870;0.022;2023-01-28T09:36:43;7.80;;;1.98;;
37805;SDS011;25082;50.870;0.022;2023-01-28T09:39:09;3.70;;;1.63;;
37805;SDS011;25082;50.870;0.022;2023-01-28T09:47:24;3.00;;;1.83;;
37805;SDS011;25082;50.870;0.022;2023-01-28T09:49:54;5.53;;;2.17;;
37805;SDS011;25082;50.870;0.022;2023-01-28T09:52:24;4.40;;;2.13;;
37805;SDS011;25082;50.870;0.022;2023-01-28T09:58:11;5.05;;;2.28;;
37805;SDS011;25082;50.870;0.022;2023-01-28T10:17:00;3.83;;;2.23;;
37805;SDS011;25082;50.870;0.022;2023-01-28T10:19:41;4.60;;;2.33;;
37805;SDS011;25082;50.870;0.022;2023-01-28T10:22:12;4.55;;;2.20;;
37805;SDS011;25082;50.870;0.022;2023-01-28T10:24:49;5.40;;;2.50;;
37805;SDS011;25082;50.870;0.022;2023-01-28T10:27:31;3.03;;;1.83;;
37805;SDS011;25082;50.870;0.022;2023-01-28T10:29:58;3.35;;;2.03;;
37805;SDS011;25082;50.870;0.022;2023-01-28T10:32:33;4.43;;;2.20;;
37805;SDS011;25082;50.870;0.022;2023-01-28T10:35:02;3.85;;;2.15;;
37805;SDS011;25082;50.870;0.022;2023-01-28T10:37:32;3.45;;;2.08;;
37805;SDS011;25082;50.870;0.022;2023-01-28T10:47:43;5.82;;;2.10;;
37805;SDS011;25082;50.870;0.022;2023-01-28T10:50:27;4.00;;;2.05;;
37805;SDS011;25082;50.870;0.022;2023-01-28T10:52:54;8.20;;;2.83;;
37805;SDS011;25082;50.870;0.022;2023-01-28T10:55:23;5.90;;;2.15;;
37805;SDS011;25082;50.870;0.022;2023-01-28T10:57:52;9.95;;;2.35;;
37805;SDS011;25082;50.870;0.022;2023-01-28T11:02:46;8.60;;;2.35;;
37805;SDS011;25082;50.870;0.022;2023-01-28T11:05:17;4.25;;;1.90;;
37805;SDS011;25082;50.870;0.022;2023-01-28T11:07:45;6.97;;;1.88;;
37805;SDS011;25082;50.870;0.022;2023-01-28T11:16:15;7.40;;;2.45;;
37805;SDS011;25082;50.870;0.022;2023-01-28T11:18:49;5.95;;;2.85;;
37805;SDS011;25082;50.870;0.022;2023-01-28T11:21:21;9.60;;;2.65;;
37805;SDS011;25082;50.870;0.022;2023-01-28T11:23:51;5.20;;;2.42;;
37805;SDS011;25082;50.870;0.022;2023-01-28T11:26:23;4.95;;;2.28;;
37805;SDS011;25082;50.870;0.022;2023-01-28T11:29:02;4.43;;;2.08;;
37805;SDS011;25082;50.870;0.022;2023-01-28T11:31:28;7.72;;;2.08;;
37805;SDS011;25082;50.870;0.022;2023-01-28T11:34:06;3.38;;;2.00;;
37805;SDS011;25082;50.870;0.022;2023-01-28T11:36:32;4.68;;;2.08;;
37805;SDS011;25082;50.870;0.022;2023-01-28T11:41:50;8.93;;;2.92;;
37805;SDS011;25082;50.870;0.022;2023-01-28T11:44:26;5.72;;;2.00;;
37805;SDS011;25082;50.870;0.022;2023-01-28T11:57:59;5.32;;;1.80;;
37805;SDS011;25082;50.870;0.022;2023-01-28T12:00:34;5.55;;;2.28;;
37805;SDS011;25082;50.870;0.022;2023-01-28T12:08:36;4.88;;;2.10;;
37805;SDS011;25082;50.870;0.022;2023-01-28T12:14:16;6.88;;;2.20;;
37805;SDS011;25082;50.870;0.022;2023-01-28T12:26:10;10.68;;;2.95;;
37805;SDS011;25082;50.870;0.022;2023-01-28T12:31:17;5.57;;;2.10;;
37805;SDS011;25082;50.870;0.022;2023-01-28T12:34:06;4.50;;;2.35;;
37805;SDS011;25082;50.870;0.022;2023-01-28T12:39:44;6.63;;;2.50;;
37805;SDS011;25082;50.870;0.022;2023-01-28T12:42:35;10.32;;;2.40;;
37805;SDS011;25082;50.870;0.022;2023-01-28T12:47:42;9.35;;;2.25;;
37805;SDS011;25082;50.870;0.022;2023-01-28T12:50:26;7.18;;;2.53;;
37805;SDS011;25082;50.870;0.022;2023-01-28T12:56:11;6.65;;;2.20;;
37805;SDS011;25082;50.870;0.022;2023-01-28T13:01:28;6.05;;;2.08;;
37805;SDS011;25082;50.870;0.022;2023-01-28T13:04:09;6.88;;;2.42;;
37805;SDS011;25082;50.870;0.022;2023-01-28T13:06:47;5.32;;;2.40;;
37805;SDS011;25082;50.870;0.022;2023-01-28T13:09:19;3.03;;;1.80;;
37805;SDS011;25082;50.870;0.022;2023-01-28T13:11:49;5.82;;;1.92;;
37805;SDS011;25082;50.870;0.022;2023-01-28T13:14:17;4.25;;;2.40;;
37805;SDS011;25082;50.870;0.022;2023-01-28T13:16:46;5.30;;;2.17;;
37805;SDS011;25082;50.870;0.022;2023-01-28T13:21:44;3.60;;;1.88;;
37805;SDS011;25082;50.870;0.022;2023-01-28T13:26:46;3.70;;;1.83;;
37805;SDS011;25082;50.870;0.022;2023-01-28T13:29:34;3.92;;;1.75;;
37805;SDS011;25082;50.870;0.022;2023-01-28T13:32:01;3.63;;;2.13;;
37805;SDS011;25082;50.870;0.022;2023-01-28T13:34:55;3.28;;;2.00;;
37805;SDS011;25082;50.870;0.022;2023-01-28T13:40:02;3.72;;;2.25;;
37805;SDS011;25082;50.870;0.022;2023-01-28T13:42:37;3.70;;;2.28;;
37805;SDS011;25082;50.870;0.022;2023-01-28T13:47:42;2.92;;;1.80;;
37805;SDS011;25082;50.870;0.022;2023-01-28T13:50:11;4.43;;;2.00;;
37805;SDS011;25082;50.870;0.022;2023-01-28T13:52:49;4.03;;;2.03;;
37805;SDS011;25082;50.870;0.022;2023-01-28T13:55:24;4.82;;;2.08;;
37805;SDS011;25082;50.870;0.022;2023-01-28T14:14:38;3.65;;;2.10;;
37805;SDS011;25082;50.870;0.022;2023-01-28T14:22:49;5.40;;;2.15;;
37805;SDS011;25082;50.870;0.022;2023-01-28T14:28:29;5.45;;;2.08;;
37805;SDS011;25082;50.870;0.022;2023-01-28T14:31:02;2.92;;;1.80;;
37805;SDS011;25082;50.870;0.022;2023-01-28T14:33:33;7.55;;;2.10;;
37805;SDS011;25082;50.870;0.022;2023-01-28T14:36:01;4.35;;;1.95;;
37805;SDS011;25082;50.870;0.022;2023-01-28T14:38:27;3.58;;;1.75;;
37805;SDS011;25082;50.870;0.022;2023-01-28T14:40:53;2.85;;;2.08;;
37805;SDS011;25082;50.870;0.022;2023-01-28T14:43:24;3.72;;;2.05;;
37805;SDS011;25082;50.870;0.022;2023-01-28T14:46:11;4.13;;;2.20;;
37805;SDS011;25082;50.870;0.022;2023-01-28T14:51:47;3.47;;;1.98;;
37805;SDS011;25082;50.870;0.022;2023-01-28T14:59:51;2.95;;;1.75;;
37805;SDS011;25082;50.870;0.022;2023-01-28T15:02:26;3.20;;;2.00;;
37805;SDS011;25082;50.870;0.022;2023-01-28T15:04:54;6.13;;;2.47;;
37805;SDS011;25082;50.870;0.022;2023-01-28T15:07:23;3.75;;;2.15;;
37805;SDS011;25082;50.870;0.022;2023-01-28T15:12:34;3.80;;;2.58;;
37805;SDS011;25082;50.870;0.022;2023-01-28T15:15:07;7.90;;;2.53;;
37805;SDS011;25082;50.870;0.022;2023-01-28T15:17:36;5.28;;;3.08;;
37805;SDS011;25082;50.870;0.022;2023-01-28T15:20:02;6.10;;;2.65;;
37805;SDS011;25082;50.870;0.022;2023-01-28T15:22:32;6.72;;;2.70;;
37805;SDS011;25082;50.870;0.022;2023-01-28T15:24:58;4.00;;;2.55;;
37805;SDS011;25082;50.870;0.022;2023-01-28T15:27:27;3.78;;;2.55;;
37805;SDS011;25082;50.870;0.022;2023-01-28T15:29:55;5.22;;;2.58;;
37805;SDS011;25082;50.870;0.022;2023-01-28T15:32:24;4.88;;;2.30;;
37805;SDS011;25082;50.870;0.022;2023-01-28T15:34:52;5.68;;;2.22;;
37805;SDS011;25082;50.870;0.022;2023-01-28T15:37:21;3.30;;;2.30;;
37805;SDS011;25082;50.870;0.022;2023-01-28T15:39:47;3.42;;;2.03;;
37805;SDS011;25082;50.870;0.022;2023-01-28T15:42:23;5.55;;;2.33;;
37805;SDS011;25082;50.870;0.022;2023-01-28T15:44:53;2.97;;;1.55;;
37805;SDS011;25082;50.870;0.022;2023-01-28T15:47:30;4.53;;;2.50;;
37805;SDS011;25082;50.870;0.022;2023-01-28T15:50:01;3.63;;;2.05;;
37805;SDS011;25082;50.870;0.022;2023-01-28T15:52:35;3.08;;;1.85;;
37805;SDS011;25082;50.870;0.022;2023-01-28T15:55:06;4.35;;;2.20;;
37805;SDS011;25082;50.870;0.022;2023-01-28T15:57:53;3.22;;;1.90;;
37805;SDS011;25082;50.870;0.022;2023-01-28T16:00:19;3.38;;;1.77;;
37805;SDS011;25082;50.870;0.022;2023-01-28T16:02:46;3.95;;;2.20;;
37805;SDS011;25082;50.870;0.022;2023-01-28T16:05:23;5.38;;;2.38;;
37805;SDS011;25082;50.870;0.022;2023-01-28T16:08:06;4.03;;;1.98;;
37805;SDS011;25082;50.870;0.022;2023-01-28T16:10:34;5.85;;;2.35;;
37805;SDS011;25082;50.870;0.022;2023-01-28T16:13:03;3.20;;;2.10;;
37805;SDS011;25082;50.870;0.022;2023-01-28T16:15:47;4.03;;;2.25;;
37805;SDS011;25082;50.870;0.022;2023-01-28T16:18:28;3.70;;;2.17;;
37805;SDS011;25082;50.870;0.022;2023-01-28T16:20:55;2.22;;;1.88;;
37805;SDS011;25082;50.870;0.022;2023-01-28T16:23:23;3.47;;;2.28;;
37805;SDS011;25082;50.870;0.022;2023-01-28T16:28:49;2.97;;;2.35;;
37805;SDS011;25082;50.870;0.022;2023-01-28T16:31:15;6.60;;;2.28;;
37805;SDS011;25082;50.870;0.022;2023-01-28T16:33:41;3.28;;;2.00;;
37805;SDS011;25082;50.870;0.022;2023-01-28T16:36:08;2.47;;;1.90;;
37805;SDS011;25082;50.870;0.022;2023-01-28T16:38:36;4.28;;;2.20;;
37805;SDS011;25082;50.870;0.022;2023-01-28T16:41:02;3.33;;;1.85;;
37805;SDS011;25082;50.870;0.022;2023-01-28T16:43:28;3.58;;;1.92;;
37805;SDS011;25082;50.870;0.022;2023-01-28T16:45:54;2.47;;;1.98;;
37805;SDS011;25082;50.870;0.022;2023-01-28T16:48:19;5.65;;;2.15;;
37805;SDS011;25082;50.870;0.022;2023-01-28T16:50:45;2.60;;;1.75;;
37805;SDS011;25082;50.870;0.022;2023-01-28T16:53:29;5.32;;;2.33;;
37805;SDS011;25082;50.870;0.022;2023-01-28T16:55:57;3.65;;;2.13;;
37805;SDS011;25082;50.870;0.022;2023-01-28T16:58:24;4.47;;;1.83;;
37805;SDS011;25082;50.870;0.022;2023-01-28T17:00:51;5.57;;;1.73;;
37805;SDS011;25082;50.870;0.022;2023-01-28T17:03:17;8.32;;;1.60;;
37805;SDS011;25082;50.870;0.022;2023-01-28T17:05:44;5.22;;;1.95;;
37805;SDS011;25082;50.870;0.022;2023-01-28T17:08:10;2.28;;;1.48;;
37805;SDS011;25082;50.870;0.022;2023-01-28T17:10:36;3.15;;;2.15;;
37805;SDS011;25082;50.870;0.022;2023-01-28T17:13:01;4.18;;;1.70;;
37805;SDS011;25082;50.870;0.022;2023-01-28T17:15:27;5.25;;;2.10;;
37805;SDS011;25082;50.870;0.022;2023-01-28T17:17:53;3.90;;;2.08;;
37805;SDS011;25082;50.870;0.022;2023-01-28T17:20:19;5.10;;;2.33;;
37805;SDS011;25082;50.870;0.022;2023-01-28T17:22:45;4.95;;;1.77;;
37805;SDS011;25082;50.870;0.022;2023-01-28T17:25:11;3.45;;;1.70;;
37805;SDS011;25082;50.870;0.022;2023-01-28T17:27:38;3.47;;;2.00;;
37805;SDS011;25082;50.870;0.022;2023-01-28T17:30:04;3.33;;;1.55;;
37805;SDS011;25082;50.870;0.022;2023-01-28T17:32:30;3.22;;;1.50;;
37805;SDS011;25082;50.870;0.022;2023-01-28T17:34:56;2.78;;;1.75;;
37805;SDS011;25082;50.870;0.022;2023-01-28T17:37:22;4.60;;;1.73;;